createdAt,value
2022-09-30T12:09:06.166Z,1002.44
2022-09-30T12:10:06.134Z,1002.45
2022-09-30T12:11:06.128Z,1002.46
2022-09-30T12:12:06.097Z,1002.41
2022-09-30T12:13:06.080Z,1002.42
2022-09-30T12:14:06.073Z,1002.44
2022-09-30T12:15:06.059Z,1002.41
2022-09-30T12:16:06.096Z,1002.35
2022-09-30T12:17:06.022Z,1002.38
2022-09-30T12:18:06.008Z,1002.45
2022-09-30T12:19:05.990Z,1002.43
2022-09-30T12:20:05.977Z,1002.38
2022-09-30T12:21:05.972Z,1002.36
2022-09-30T12:22:05.941Z,1002.34
2022-09-30T12:23:05.916Z,1002.32
2022-09-30T12:24:05.917Z,1002.29
2022-09-30T12:25:05.949Z,1002.27
2022-09-30T12:26:05.897Z,1002.30
2022-09-30T12:27:05.861Z,1002.32
2022-09-30T12:28:05.884Z,1002.35
2022-09-30T12:29:05.829Z,1002.32
2022-09-30T12:30:05.814Z,1002.35
2022-09-30T12:31:05.821Z,1002.35
2022-09-30T12:32:05.814Z,1002.27
2022-09-30T12:33:05.782Z,1002.25
2022-09-30T12:34:05.758Z,1002.23
2022-09-30T12:35:05.755Z,1002.23
2022-09-30T12:36:05.752Z,1002.09
2022-09-30T12:37:05.725Z,1002.13
2022-09-30T12:38:05.701Z,1002.21
2022-09-30T12:39:05.688Z,1002.23
2022-09-30T12:40:05.747Z,1002.24
2022-09-30T12:41:05.678Z,1002.09
2022-09-30T12:42:05.643Z,1002.14
2022-09-30T12:43:05.641Z,1002.16
2022-09-30T12:44:05.628Z,1002.15
2022-09-30T12:45:05.603Z,1002.11
2022-09-30T12:46:05.688Z,1002.08
2022-09-30T12:52:07.304Z,1002.20
2022-09-30T12:57:00.570Z,1002.13
2022-09-30T12:58:00.483Z,1002.01
2022-09-30T12:59:00.475Z,1001.99
2022-09-30T13:00:00.465Z,1001.96
2022-09-30T13:01:00.543Z,1002.08
2022-09-30T13:02:00.477Z,1002.07
2022-09-30T13:03:00.442Z,1002.10
2022-09-30T13:04:00.398Z,1002.08
2022-09-30T13:05:00.391Z,1002.10
2022-09-30T13:06:00.372Z,1002.06
2022-09-30T13:07:00.381Z,1001.98
2022-09-30T13:08:00.357Z,1002.01
2022-09-30T13:09:01.166Z,1002.01
2022-09-30T13:10:00.323Z,1002.05
2022-09-30T13:11:36.222Z,1001.91
2022-09-30T13:12:36.182Z,1001.91
2022-09-30T13:13:36.175Z,1001.97
2022-09-30T13:14:36.175Z,1001.98
2022-09-30T13:15:36.153Z,1001.93
2022-09-30T13:16:36.614Z,1001.95
2022-09-30T13:17:36.148Z,1001.98
2022-09-30T13:18:36.106Z,1001.96
2022-09-30T13:19:36.101Z,1001.97
2022-09-30T13:20:36.082Z,1001.98
2022-09-30T13:21:36.062Z,1001.97
2022-09-30T13:22:36.076Z,1001.94
2022-09-30T13:49:59.782Z,1001.77
2022-09-30T13:50:59.766Z,1001.78
2022-09-30T13:51:59.747Z,1001.75
2022-09-30T13:52:59.746Z,1001.79
2022-09-30T13:53:59.717Z,1001.82
2022-09-30T13:54:59.692Z,1001.77
2022-09-30T13:55:59.676Z,1001.75
2022-09-30T13:56:59.682Z,1001.67
2022-09-30T13:57:59.647Z,1001.75
2022-09-30T13:58:59.637Z,1001.71
2022-09-30T13:59:59.639Z,1001.73
2022-09-30T14:00:59.698Z,1001.63
2022-09-30T14:01:59.617Z,1001.64
2022-09-30T14:23:14.004Z,1001.81
2022-09-30T14:24:13.974Z,1001.87
2022-09-30T14:25:13.964Z,1001.80
2022-09-30T14:26:13.945Z,1001.73
2022-09-30T14:27:13.949Z,1001.64
2022-09-30T14:28:14.121Z,1001.59
2022-09-30T14:29:13.916Z,1001.56
2022-09-30T14:30:13.901Z,1001.49
2022-09-30T14:31:14.092Z,1001.48
2022-09-30T14:32:13.907Z,1001.47
2022-09-30T14:33:13.865Z,1001.47
2022-09-30T14:34:13.858Z,1001.43
2022-09-30T14:36:45.416Z,1001.41
2022-09-30T14:37:45.392Z,1001.46
2022-09-30T14:38:45.380Z,1001.42
2022-09-30T14:39:45.373Z,1001.41
2022-09-30T14:40:45.362Z,1001.40
2022-09-30T14:41:45.401Z,1001.36
2022-09-30T14:42:45.347Z,1001.31
2022-09-30T14:43:45.332Z,1001.29
2022-09-30T14:44:45.324Z,1001.30
2022-09-30T14:45:45.351Z,1001.29
